Terminal Aerodrome Forecast
Issued by NWS

Home | Current Version | Previous Version | Text Only | Print | Product List | Glossary On
Versions: 1 2 3 4 5 6 7 8 9 10 11 12 13 14 15 16 17 18 19 20 21 22 23 24 25 26 27 28 29 30 31 32 33 34 35 36 37 38 39 40 41 42 43 44 45 46 47 48 49 50
000
FTUS44 KHGX 051127
TAFIAH
TAF
KIAH 051127Z 0512/0618 18004KT P6SM FEW020 SCT250
     FM051600 17008KT P6SM SCT050
     FM052000 16009KT P6SM VCSH SCT045 BKN150
     FM060000 18007KT P6SM FEW050
     FM060300 20004KT P6SM SKC
     FM061500 20007KT P6SM FEW060=

USA.gov is the U.S. government's official web portal to all federal, state and local government web resources and services.